Terminal Aerodrome Forecast
Issued by NWS Tiyan, Guam

Home | Current Version | Previous Version | Text Only | Print | Product List | Glossary On
Versions: 1 2 3 4 5 6 7 8 9 10 11 12 13
000
FTPQ31 PGUM 110525
TAFGUM
TAF
PGUM 110525Z 1106/1212 11014KT P6SM VCSH FEW018 SCT040 SCT120
     FM110900 09010KT P6SM VCSH FEW018 FEW040=

USA.gov is the U.S. government's official web portal to all federal, state and local government web resources and services.